sensor_id;sensor_type;location;lat;lon;timestamp;P1;durP1;ratioP1;P2;durP2;ratioP2
11396;SDS011;5754;43.726;7.416;2023-07-02T00:00:59;9.40;;;4.35;;
11396;SDS011;5754;43.726;7.416;2023-07-02T00:03:34;6.75;;;4.15;;
11396;SDS011;5754;43.726;7.416;2023-07-02T00:06:09;4.35;;;3.90;;
11396;SDS011;5754;43.726;7.416;2023-07-02T00:08:44;5.60;;;3.92;;
11396;SDS011;5754;43.726;7.416;2023-07-02T00:11:22;6.00;;;4.28;;
11396;SDS011;5754;43.726;7.416;2023-07-02T00:13:57;7.18;;;4.35;;
11396;SDS011;5754;43.726;7.416;2023-07-02T00:16:32;5.95;;;4.80;;
11396;SDS011;5754;43.726;7.416;2023-07-02T00:19:08;6.57;;;4.03;;
11396;SDS011;5754;43.726;7.416;2023-07-02T00:21:43;6.22;;;4.25;;
11396;SDS011;5754;43.726;7.416;2023-07-02T00:24:18;5.22;;;4.28;;
11396;SDS011;5754;43.726;7.416;2023-07-02T00:26:54;5.55;;;4.70;;
11396;SDS011;5754;43.726;7.416;2023-07-02T00:29:29;7.03;;;4.45;;
11396;SDS011;5754;43.726;7.416;2023-07-02T00:32:04;6.15;;;4.65;;
11396;SDS011;5754;43.726;7.416;2023-07-02T00:34:39;6.32;;;4.60;;
11396;SDS011;5754;43.726;7.416;2023-07-02T00:37:16;6.25;;;4.28;;
11396;SDS011;5754;43.726;7.416;2023-07-02T00:39:50;6.28;;;4.28;;
11396;SDS011;5754;43.726;7.416;2023-07-02T00:42:25;10.43;;;4.62;;
11396;SDS011;5754;43.726;7.416;2023-07-02T00:45:03;5.32;;;4.50;;
11396;SDS011;5754;43.726;7.416;2023-07-02T00:47:39;5.65;;;4.60;;
11396;SDS011;5754;43.726;7.416;2023-07-02T00:50:15;5.75;;;4.47;;
11396;SDS011;5754;43.726;7.416;2023-07-02T00:52:51;6.53;;;4.60;;
11396;SDS011;5754;43.726;7.416;2023-07-02T00:55:27;6.57;;;4.72;;
11396;SDS011;5754;43.726;7.416;2023-07-02T00:58:02;7.00;;;4.75;;
11396;SDS011;5754;43.726;7.416;2023-07-02T01:00:37;5.50;;;4.47;;
11396;SDS011;5754;43.726;7.416;2023-07-02T01:03:11;5.87;;;4.35;;
11396;SDS011;5754;43.726;7.416;2023-07-02T01:05:46;7.55;;;4.45;;
11396;SDS011;5754;43.726;7.416;2023-07-02T01:08:21;7.95;;;5.18;;
11396;SDS011;5754;43.726;7.416;2023-07-02T01:10:57;9.32;;;4.50;;
11396;SDS011;5754;43.726;7.416;2023-07-02T01:13:33;8.07;;;5.25;;
11396;SDS011;5754;43.726;7.416;2023-07-02T01:16:09;5.28;;;4.78;;
11396;SDS011;5754;43.726;7.416;2023-07-02T01:18:44;7.82;;;4.97;;
11396;SDS011;5754;43.726;7.416;2023-07-02T01:21:21;6.07;;;4.78;;
11396;SDS011;5754;43.726;7.416;2023-07-02T01:23:56;7.37;;;5.12;;
11396;SDS011;5754;43.726;7.416;2023-07-02T01:26:34;5.55;;;4.65;;
11396;SDS011;5754;43.726;7.416;2023-07-02T01:29:17;6.12;;;4.60;;
11396;SDS011;5754;43.726;7.416;2023-07-02T01:31:52;11.38;;;5.35;;
11396;SDS011;5754;43.726;7.416;2023-07-02T01:34:26;5.75;;;4.70;;
11396;SDS011;5754;43.726;7.416;2023-07-02T01:37:02;7.47;;;4.40;;
11396;SDS011;5754;43.726;7.416;2023-07-02T01:39:37;8.68;;;5.10;;
11396;SDS011;5754;43.726;7.416;2023-07-02T01:42:14;7.62;;;5.22;;
11396;SDS011;5754;43.726;7.416;2023-07-02T01:44:52;7.28;;;4.95;;
11396;SDS011;5754;43.726;7.416;2023-07-02T01:47:27;7.28;;;4.62;;
11396;SDS011;5754;43.726;7.416;2023-07-02T01:50:03;6.60;;;4.90;;
11396;SDS011;5754;43.726;7.416;2023-07-02T01:52:41;5.85;;;4.85;;
11396;SDS011;5754;43.726;7.416;2023-07-02T01:55:17;5.25;;;4.32;;
11396;SDS011;5754;43.726;7.416;2023-07-02T01:57:54;6.32;;;4.35;;
11396;SDS011;5754;43.726;7.416;2023-07-02T02:00:28;6.57;;;4.90;;
11396;SDS011;5754;43.726;7.416;2023-07-02T02:03:04;7.10;;;4.50;;
11396;SDS011;5754;43.726;7.416;2023-07-02T02:05:42;8.27;;;5.20;;
11396;SDS011;5754;43.726;7.416;2023-07-02T02:08:16;7.30;;;4.75;;
11396;SDS011;5754;43.726;7.416;2023-07-02T02:10:51;7.12;;;5.25;;
11396;SDS011;5754;43.726;7.416;2023-07-02T02:13:27;7.62;;;5.05;;
11396;SDS011;5754;43.726;7.416;2023-07-02T02:16:01;6.15;;;5.10;;
11396;SDS011;5754;43.726;7.416;2023-07-02T02:18:36;6.18;;;4.60;;
11396;SDS011;5754;43.726;7.416;2023-07-02T02:21:11;6.32;;;4.95;;
11396;SDS011;5754;43.726;7.416;2023-07-02T02:23:45;4.95;;;4.43;;
11396;SDS011;5754;43.726;7.416;2023-07-02T02:26:21;9.20;;;5.35;;
11396;SDS011;5754;43.726;7.416;2023-07-02T02:28:56;6.03;;;4.90;;
11396;SDS011;5754;43.726;7.416;2023-07-02T02:31:31;7.10;;;4.87;;
11396;SDS011;5754;43.726;7.416;2023-07-02T02:34:06;7.35;;;4.50;;
11396;SDS011;5754;43.726;7.416;2023-07-02T02:36:42;6.62;;;4.93;;
11396;SDS011;5754;43.726;7.416;2023-07-02T02:39:18;7.35;;;5.15;;
11396;SDS011;5754;43.726;7.416;2023-07-02T02:41:52;8.13;;;4.93;;
11396;SDS011;5754;43.726;7.416;2023-07-02T02:44:29;7.93;;;5.10;;
11396;SDS011;5754;43.726;7.416;2023-07-02T02:47:08;7.57;;;4.82;;
11396;SDS011;5754;43.726;7.416;2023-07-02T02:49:44;8.23;;;4.97;;
11396;SDS011;5754;43.726;7.416;2023-07-02T02:52:20;7.62;;;5.10;;
11396;SDS011;5754;43.726;7.416;2023-07-02T02:54:54;5.65;;;4.50;;
11396;SDS011;5754;43.726;7.416;2023-07-02T02:57:30;5.43;;;4.87;;
11396;SDS011;5754;43.726;7.416;2023-07-02T03:00:05;7.00;;;5.18;;
11396;SDS011;5754;43.726;7.416;2023-07-02T03:02:40;5.00;;;4.53;;
11396;SDS011;5754;43.726;7.416;2023-07-02T03:05:16;5.55;;;5.00;;
11396;SDS011;5754;43.726;7.416;2023-07-02T03:07:52;6.60;;;4.97;;
11396;SDS011;5754;43.726;7.416;2023-07-02T03:10:27;7.80;;;5.00;;
11396;SDS011;5754;43.726;7.416;2023-07-02T03:13:03;6.97;;;4.47;;
11396;SDS011;5754;43.726;7.416;2023-07-02T03:15:38;8.27;;;5.03;;
11396;SDS011;5754;43.726;7.416;2023-07-02T03:18:14;6.45;;;4.90;;
11396;SDS011;5754;43.726;7.416;2023-07-02T03:20:49;7.78;;;4.97;;
11396;SDS011;5754;43.726;7.416;2023-07-02T03:23:24;6.30;;;4.60;;
11396;SDS011;5754;43.726;7.416;2023-07-02T03:25:58;5.30;;;4.78;;
11396;SDS011;5754;43.726;7.416;2023-07-02T03:28:33;6.35;;;5.07;;
11396;SDS011;5754;43.726;7.416;2023-07-02T03:31:08;6.87;;;4.97;;
11396;SDS011;5754;43.726;7.416;2023-07-02T03:33:44;6.30;;;5.00;;
11396;SDS011;5754;43.726;7.416;2023-07-02T03:36:19;6.70;;;5.10;;
11396;SDS011;5754;43.726;7.416;2023-07-02T03:38:54;6.28;;;5.12;;
11396;SDS011;5754;43.726;7.416;2023-07-02T03:41:29;5.32;;;4.80;;
11396;SDS011;5754;43.726;7.416;2023-07-02T03:44:04;5.82;;;4.80;;
11396;SDS011;5754;43.726;7.416;2023-07-02T03:46:39;5.60;;;4.82;;
11396;SDS011;5754;43.726;7.416;2023-07-02T03:49:14;5.68;;;4.78;;
11396;SDS011;5754;43.726;7.416;2023-07-02T03:51:49;7.40;;;5.05;;
11396;SDS011;5754;43.726;7.416;2023-07-02T03:54:25;8.90;;;5.20;;
11396;SDS011;5754;43.726;7.416;2023-07-02T03:56:59;7.28;;;5.28;;
11396;SDS011;5754;43.726;7.416;2023-07-02T03:59:34;6.30;;;4.43;;
11396;SDS011;5754;43.726;7.416;2023-07-02T04:02:08;8.90;;;5.40;;
11396;SDS011;5754;43.726;7.416;2023-07-02T04:04:43;5.68;;;4.97;;
11396;SDS011;5754;43.726;7.416;2023-07-02T04:07:18;8.63;;;5.95;;
11396;SDS011;5754;43.726;7.416;2023-07-02T04:09:52;9.65;;;4.93;;
11396;SDS011;5754;43.726;7.416;2023-07-02T04:12:28;13.13;;;5.37;;
11396;SDS011;5754;43.726;7.416;2023-07-02T04:15:03;12.27;;;5.47;;
11396;SDS011;5754;43.726;7.416;2023-07-02T04:17:38;12.63;;;5.25;;
11396;SDS011;5754;43.726;7.416;2023-07-02T04:20:13;9.93;;;5.60;;
11396;SDS011;5754;43.726;7.416;2023-07-02T04:22:47;12.68;;;5.50;;
11396;SDS011;5754;43.726;7.416;2023-07-02T04:25:22;10.18;;;5.60;;
11396;SDS011;5754;43.726;7.416;2023-07-02T04:27:58;8.32;;;5.47;;
11396;SDS011;5754;43.726;7.416;2023-07-02T04:30:33;7.25;;;4.78;;
11396;SDS011;5754;43.726;7.416;2023-07-02T04:33:07;6.25;;;4.65;;
11396;SDS011;5754;43.726;7.416;2023-07-02T04:35:42;6.80;;;4.65;;
11396;SDS011;5754;43.726;7.416;2023-07-02T04:38:17;6.35;;;4.55;;
11396;SDS011;5754;43.726;7.416;2023-07-02T04:40:51;9.43;;;4.75;;
11396;SDS011;5754;43.726;7.416;2023-07-02T04:43:26;7.28;;;4.87;;
11396;SDS011;5754;43.726;7.416;2023-07-02T04:46:02;11.05;;;4.90;;
11396;SDS011;5754;43.726;7.416;2023-07-02T04:48:42;7.80;;;4.70;;
11396;SDS011;5754;43.726;7.416;2023-07-02T04:51:16;7.68;;;4.70;;
11396;SDS011;5754;43.726;7.416;2023-07-02T04:53:52;8.10;;;4.80;;
11396;SDS011;5754;43.726;7.416;2023-07-02T04:56:27;8.07;;;4.40;;
11396;SDS011;5754;43.726;7.416;2023-07-02T04:59:02;7.75;;;4.90;;
11396;SDS011;5754;43.726;7.416;2023-07-02T05:01:42;7.03;;;5.55;;
11396;SDS011;5754;43.726;7.416;2023-07-02T05:04:18;6.90;;;5.22;;
11396;SDS011;5754;43.726;7.416;2023-07-02T05:06:54;6.47;;;4.55;;
11396;SDS011;5754;43.726;7.416;2023-07-02T05:09:30;9.20;;;5.12;;
11396;SDS011;5754;43.726;7.416;2023-07-02T05:12:05;8.73;;;5.22;;
11396;SDS011;5754;43.726;7.416;2023-07-02T05:14:42;9.52;;;5.18;;
11396;SDS011;5754;43.726;7.416;2023-07-02T05:17:17;9.82;;;5.12;;
11396;SDS011;5754;43.726;7.416;2023-07-02T05:19:52;8.93;;;5.03;;
11396;SDS011;5754;43.726;7.416;2023-07-02T05:22:26;11.25;;;5.28;;
11396;SDS011;5754;43.726;7.416;2023-07-02T05:25:01;7.93;;;4.78;;
11396;SDS011;5754;43.726;7.416;2023-07-02T05:27:36;6.95;;;4.82;;
11396;SDS011;5754;43.726;7.416;2023-07-02T05:30:11;8.80;;;4.82;;
11396;SDS011;5754;43.726;7.416;2023-07-02T05:32:46;8.70;;;4.78;;
11396;SDS011;5754;43.726;7.416;2023-07-02T05:35:20;7.10;;;5.07;;
11396;SDS011;5754;43.726;7.416;2023-07-02T05:37:55;5.53;;;4.53;;
11396;SDS011;5754;43.726;7.416;2023-07-02T05:40:30;6.28;;;5.10;;
11396;SDS011;5754;43.726;7.416;2023-07-02T05:43:05;8.60;;;5.00;;
11396;SDS011;5754;43.726;7.416;2023-07-02T05:45:40;7.20;;;5.30;;
11396;SDS011;5754;43.726;7.416;2023-07-02T05:48:14;7.78;;;5.28;;
11396;SDS011;5754;43.726;7.416;2023-07-02T05:50:49;6.93;;;5.10;;
11396;SDS011;5754;43.726;7.416;2023-07-02T05:53:24;7.93;;;5.22;;
11396;SDS011;5754;43.726;7.416;2023-07-02T05:55:58;8.80;;;5.03;;
11396;SDS011;5754;43.726;7.416;2023-07-02T05:58:33;6.12;;;4.80;;
11396;SDS011;5754;43.726;7.416;2023-07-02T06:01:17;5.35;;;4.55;;
11396;SDS011;5754;43.726;7.416;2023-07-02T06:04:05;6.80;;;4.45;;
11396;SDS011;5754;43.726;7.416;2023-07-02T06:06:41;7.90;;;5.00;;
11396;SDS011;5754;43.726;7.416;2023-07-02T06:09:16;7.05;;;5.00;;
11396;SDS011;5754;43.726;7.416;2023-07-02T06:11:51;6.55;;;4.53;;
11396;SDS011;5754;43.726;7.416;2023-07-02T06:14:25;6.30;;;4.62;;
11396;SDS011;5754;43.726;7.416;2023-07-02T06:17:00;4.62;;;4.22;;
11396;SDS011;5754;43.726;7.416;2023-07-02T06:19:39;6.80;;;4.95;;
11396;SDS011;5754;43.726;7.416;2023-07-02T06:22:15;5.87;;;4.57;;
11396;SDS011;5754;43.726;7.416;2023-07-02T06:24:50;7.62;;;4.50;;
11396;SDS011;5754;43.726;7.416;2023-07-02T06:27:26;6.78;;;5.47;;
11396;SDS011;5754;43.726;7.416;2023-07-02T06:30:00;6.95;;;4.75;;
11396;SDS011;5754;43.726;7.416;2023-07-02T06:32:35;7.47;;;4.90;;
11396;SDS011;5754;43.726;7.416;2023-07-02T06:35:10;10.30;;;4.97;;
11396;SDS011;5754;43.726;7.416;2023-07-02T06:37:44;8.40;;;4.80;;
11396;SDS011;5754;43.726;7.416;2023-07-02T06:40:20;5.82;;;5.32;;
11396;SDS011;5754;43.726;7.416;2023-07-02T06:42:56;5.68;;;5.03;;
11396;SDS011;5754;43.726;7.416;2023-07-02T06:45:31;5.75;;;5.22;;
11396;SDS011;5754;43.726;7.416;2023-07-02T06:48:05;5.72;;;5.00;;
11396;SDS011;5754;43.726;7.416;2023-07-02T06:50:42;5.30;;;4.72;;
11396;SDS011;5754;43.726;7.416;2023-07-02T06:53:19;5.53;;;5.03;;
11396;SDS011;5754;43.726;7.416;2023-07-02T06:55:54;6.22;;;5.12;;
11396;SDS011;5754;43.726;7.416;2023-07-02T06:58:30;8.13;;;4.50;;
11396;SDS011;5754;43.726;7.416;2023-07-02T07:01:05;7.97;;;4.50;;
11396;SDS011;5754;43.726;7.416;2023-07-02T07:03:42;6.40;;;4.32;;
11396;SDS011;5754;43.726;7.416;2023-07-02T07:06:16;4.80;;;4.32;;
11396;SDS011;5754;43.726;7.416;2023-07-02T07:08:51;4.97;;;4.20;;
11396;SDS011;5754;43.726;7.416;2023-07-02T07:11:26;7.22;;;4.65;;
11396;SDS011;5754;43.726;7.416;2023-07-02T07:14:00;4.62;;;4.10;;
11396;SDS011;5754;43.726;7.416;2023-07-02T07:16:36;6.03;;;4.68;;
11396;SDS011;5754;43.726;7.416;2023-07-02T07:19:11;4.80;;;4.05;;
11396;SDS011;5754;43.726;7.416;2023-07-02T07:21:46;7.57;;;4.32;;
11396;SDS011;5754;43.726;7.416;2023-07-02T07:24:21;7.07;;;4.65;;
11396;SDS011;5754;43.726;7.416;2023-07-02T07:26:56;7.30;;;4.30;;
11396;SDS011;5754;43.726;7.416;2023-07-02T07:29:31;6.75;;;5.20;;
11396;SDS011;5754;43.726;7.416;2023-07-02T07:32:06;9.55;;;5.20;;
11396;SDS011;5754;43.726;7.416;2023-07-02T07:34:41;7.40;;;5.10;;
11396;SDS011;5754;43.726;7.416;2023-07-02T07:37:16;5.45;;;4.57;;
11396;SDS011;5754;43.726;7.416;2023-07-02T07:39:51;8.25;;;4.22;;
11396;SDS011;5754;43.726;7.416;2023-07-02T07:42:25;5.35;;;4.22;;
11396;SDS011;5754;43.726;7.416;2023-07-02T07:45:02;7.07;;;4.03;;
11396;SDS011;5754;43.726;7.416;2023-07-02T07:47:37;5.75;;;4.18;;
11396;SDS011;5754;43.726;7.416;2023-07-02T07:50:12;4.90;;;4.30;;
11396;SDS011;5754;43.726;7.416;2023-07-02T07:52:47;5.15;;;3.90;;
11396;SDS011;5754;43.726;7.416;2023-07-02T07:55:22;6.37;;;4.75;;
11396;SDS011;5754;43.726;7.416;2023-07-02T07:57:57;8.10;;;4.60;;
11396;SDS011;5754;43.726;7.416;2023-07-02T08:00:32;6.62;;;4.50;;
11396;SDS011;5754;43.726;7.416;2023-07-02T08:03:07;7.85;;;4.40;;
11396;SDS011;5754;43.726;7.416;2023-07-02T08:08:23;5.47;;;4.32;;
11396;SDS011;5754;43.726;7.416;2023-07-02T08:10:58;8.23;;;4.53;;
11396;SDS011;5754;43.726;7.416;2023-07-02T08:13:33;6.68;;;4.28;;
11396;SDS011;5754;43.726;7.416;2023-07-02T08:16:08;6.12;;;4.03;;
11396;SDS011;5754;43.726;7.416;2023-07-02T08:18:43;8.77;;;4.60;;
11396;SDS011;5754;43.726;7.416;2023-07-02T08:21:18;10.27;;;4.62;;
11396;SDS011;5754;43.726;7.416;2023-07-02T08:23:53;5.10;;;4.20;;
11396;SDS011;5754;43.726;7.416;2023-07-02T08:26:28;6.00;;;4.75;;
11396;SDS011;5754;43.726;7.416;2023-07-02T08:29:03;7.30;;;4.72;;
11396;SDS011;5754;43.726;7.416;2023-07-02T08:31:38;6.50;;;4.43;;
11396;SDS011;5754;43.726;7.416;2023-07-02T08:34:13;5.62;;;4.30;;
11396;SDS011;5754;43.726;7.416;2023-07-02T08:36:48;4.97;;;4.47;;
11396;SDS011;5754;43.726;7.416;2023-07-02T08:39:22;7.10;;;4.57;;
11396;SDS011;5754;43.726;7.416;2023-07-02T08:41:57;5.50;;;4.70;;
11396;SDS011;5754;43.726;7.416;2023-07-02T08:44:33;5.82;;;4.75;;
11396;SDS011;5754;43.726;7.416;2023-07-02T08:47:09;6.70;;;4.78;;
11396;SDS011;5754;43.726;7.416;2023-07-02T08:49:44;5.53;;;4.60;;
11396;SDS011;5754;43.726;7.416;2023-07-02T08:52:32;6.37;;;4.82;;
11396;SDS011;5754;43.726;7.416;2023-07-02T08:55:07;5.35;;;4.80;;
11396;SDS011;5754;43.726;7.416;2023-07-02T08:57:48;7.90;;;4.70;;
11396;SDS011;5754;43.726;7.416;2023-07-02T09:00:23;9.77;;;5.20;;
11396;SDS011;5754;43.726;7.416;2023-07-02T09:02:59;6.07;;;5.10;;
11396;SDS011;5754;43.726;7.416;2023-07-02T09:05:34;8.90;;;5.47;;
11396;SDS011;5754;43.726;7.416;2023-07-02T09:08:10;7.47;;;4.95;;
11396;SDS011;5754;43.726;7.416;2023-07-02T09:10:45;6.85;;;5.03;;
11396;SDS011;5754;43.726;7.416;2023-07-02T09:13:20;6.68;;;5.28;;
11396;SDS011;5754;43.726;7.416;2023-07-02T09:15:54;7.57;;;5.47;;
11396;SDS011;5754;43.726;7.416;2023-07-02T09:18:29;8.70;;;5.60;;
11396;SDS011;5754;43.726;7.416;2023-07-02T09:21:04;6.97;;;5.28;;
11396;SDS011;5754;43.726;7.416;2023-07-02T09:23:39;5.78;;;4.90;;
11396;SDS011;5754;43.726;7.416;2023-07-02T09:26:21;7.70;;;4.82;;
11396;SDS011;5754;43.726;7.416;2023-07-02T09:29:04;9.23;;;5.85;;
11396;SDS011;5754;43.726;7.416;2023-07-02T09:31:46;7.28;;;5.68;;
11396;SDS011;5754;43.726;7.416;2023-07-02T09:34:36;8.05;;;5.57;;
11396;SDS011;5754;43.726;7.416;2023-07-02T09:37:11;9.13;;;5.47;;
11396;SDS011;5754;43.726;7.416;2023-07-02T09:39:48;7.03;;;4.62;;
11396;SDS011;5754;43.726;7.416;2023-07-02T09:42:25;9.70;;;5.60;;
11396;SDS011;5754;43.726;7.416;2023-07-02T09:45:00;8.20;;;5.28;;
11396;SDS011;5754;43.726;7.416;2023-07-02T09:47:38;8.38;;;5.30;;
11396;SDS011;5754;43.726;7.416;2023-07-02T09:50:15;5.78;;;5.20;;
11396;SDS011;5754;43.726;7.416;2023-07-02T09:52:51;8.23;;;5.28;;
11396;SDS011;5754;43.726;7.416;2023-07-02T09:55:27;10.88;;;5.60;;
11396;SDS011;5754;43.726;7.416;2023-07-02T09:58:01;7.10;;;4.97;;
11396;SDS011;5754;43.726;7.416;2023-07-02T10:00:36;7.28;;;5.30;;
11396;SDS011;5754;43.726;7.416;2023-07-02T10:03:11;7.35;;;4.90;;
11396;SDS011;5754;43.726;7.416;2023-07-02T10:05:46;7.90;;;5.55;;
11396;SDS011;5754;43.726;7.416;2023-07-02T10:08:20;9.20;;;5.80;;
11396;SDS011;5754;43.726;7.416;2023-07-02T10:11:07;8.93;;;5.50;;
11396;SDS011;5754;43.726;7.416;2023-07-02T10:13:42;5.80;;;5.22;;
11396;SDS011;5754;43.726;7.416;2023-07-02T10:16:17;8.98;;;5.07;;
11396;SDS011;5754;43.726;7.416;2023-07-02T10:18:54;6.32;;;5.00;;
11396;SDS011;5754;43.726;7.416;2023-07-02T10:21:29;9.63;;;4.93;;
11396;SDS011;5754;43.726;7.416;2023-07-02T10:24:11;8.02;;;5.45;;
11396;SDS011;5754;43.726;7.416;2023-07-02T10:26:58;10.55;;;5.47;;
11396;SDS011;5754;43.726;7.416;2023-07-02T10:29:33;9.73;;;5.20;;
11396;SDS011;5754;43.726;7.416;2023-07-02T10:32:08;15.48;;;4.87;;
11396;SDS011;5754;43.726;7.416;2023-07-02T10:34:44;20.50;;;5.22;;
11396;SDS011;5754;43.726;7.416;2023-07-02T10:37:18;17.77;;;5.75;;
11396;SDS011;5754;43.726;7.416;2023-07-02T10:39:54;18.50;;;4.95;;
11396;SDS011;5754;43.726;7.416;2023-07-02T10:42:29;21.52;;;5.75;;
11396;SDS011;5754;43.726;7.416;2023-07-02T10:45:17;20.60;;;5.50;;
11396;SDS011;5754;43.726;7.416;2023-07-02T10:47:52;19.45;;;5.40;;
11396;SDS011;5754;43.726;7.416;2023-07-02T10:50:28;21.58;;;5.90;;
11396;SDS011;5754;43.726;7.416;2023-07-02T10:53:03;18.08;;;4.82;;
11396;SDS011;5754;43.726;7.416;2023-07-02T10:55:39;30.77;;;6.53;;
11396;SDS011;5754;43.726;7.416;2023-07-02T10:58:13;20.52;;;5.25;;
11396;SDS011;5754;43.726;7.416;2023-07-02T11:00:50;20.37;;;5.57;;
11396;SDS011;5754;43.726;7.416;2023-07-02T11:03:27;28.67;;;6.93;;
11396;SDS011;5754;43.726;7.416;2023-07-02T11:06:04;21.50;;;6.00;;
11396;SDS011;5754;43.726;7.416;2023-07-02T11:08:40;31.83;;;6.68;;
11396;SDS011;5754;43.726;7.416;2023-07-02T11:11:16;24.42;;;6.10;;
11396;SDS011;5754;43.726;7.416;2023-07-02T11:13:51;28.08;;;5.95;;
11396;SDS011;5754;43.726;7.416;2023-07-02T11:16:27;21.75;;;6.70;;
11396;SDS011;5754;43.726;7.416;2023-07-02T11:19:06;24.27;;;6.70;;
11396;SDS011;5754;43.726;7.416;2023-07-02T11:21:50;26.45;;;6.72;;
11396;SDS011;5754;43.726;7.416;2023-07-02T11:24:32;18.67;;;5.55;;
11396;SDS011;5754;43.726;7.416;2023-07-02T11:27:07;25.10;;;6.57;;
11396;SDS011;5754;43.726;7.416;2023-07-02T11:29:43;26.48;;;7.00;;
11396;SDS011;5754;43.726;7.416;2023-07-02T11:32:19;23.48;;;5.80;;
11396;SDS011;5754;43.726;7.416;2023-07-02T11:34:55;22.02;;;6.25;;
11396;SDS011;5754;43.726;7.416;2023-07-02T11:37:30;23.62;;;5.62;;
11396;SDS011;5754;43.726;7.416;2023-07-02T11:40:05;20.95;;;6.15;;
11396;SDS011;5754;43.726;7.416;2023-07-02T11:42:40;21.20;;;6.43;;
11396;SDS011;5754;43.726;7.416;2023-07-02T11:45:15;20.25;;;6.03;;
11396;SDS011;5754;43.726;7.416;2023-07-02T11:47:52;18.08;;;5.37;;
11396;SDS011;5754;43.726;7.416;2023-07-02T11:50:28;18.73;;;5.32;;
11396;SDS011;5754;43.726;7.416;2023-07-02T11:53:04;20.20;;;5.57;;
11396;SDS011;5754;43.726;7.416;2023-07-02T11:55:42;19.55;;;5.03;;
11396;SDS011;5754;43.726;7.416;2023-07-02T11:58:17;19.98;;;5.20;;
11396;SDS011;5754;43.726;7.416;2023-07-02T12:00:54;19.48;;;5.43;;
11396;SDS011;5754;43.726;7.416;2023-07-02T12:03:30;21.12;;;6.05;;
11396;SDS011;5754;43.726;7.416;2023-07-02T12:06:05;19.00;;;5.22;;
11396;SDS011;5754;43.726;7.416;2023-07-02T12:08:45;22.08;;;5.72;;
11396;SDS011;5754;43.726;7.416;2023-07-02T12:11:20;22.30;;;5.75;;
11396;SDS011;5754;43.726;7.416;2023-07-02T12:13:55;20.50;;;5.03;;
11396;SDS011;5754;43.726;7.416;2023-07-02T12:16:33;17.58;;;5.50;;
11396;SDS011;5754;43.726;7.416;2023-07-02T12:19:08;19.48;;;5.05;;
11396;SDS011;5754;43.726;7.416;2023-07-02T12:21:43;25.73;;;5.45;;
11396;SDS011;5754;43.726;7.416;2023-07-02T12:24:18;18.52;;;5.65;;
11396;SDS011;5754;43.726;7.416;2023-07-02T12:26:53;18.62;;;5.20;;
11396;SDS011;5754;43.726;7.416;2023-07-02T12:29:28;17.60;;;4.80;;
11396;SDS011;5754;43.726;7.416;2023-07-02T12:32:03;16.00;;;5.43;;
11396;SDS011;5754;43.726;7.416;2023-07-02T12:34:38;18.10;;;6.20;;
11396;SDS011;5754;43.726;7.416;2023-07-02T12:37:14;18.33;;;5.20;;
11396;SDS011;5754;43.726;7.416;2023-07-02T12:39:52;20.42;;;5.43;;
11396;SDS011;5754;43.726;7.416;2023-07-02T12:42:27;18.70;;;5.35;;
11396;SDS011;5754;43.726;7.416;2023-07-02T12:45:02;19.75;;;5.25;;
11396;SDS011;5754;43.726;7.416;2023-07-02T12:47:38;17.00;;;5.35;;
11396;SDS011;5754;43.726;7.416;2023-07-02T12:50:13;21.08;;;6.12;;
11396;SDS011;5754;43.726;7.416;2023-07-02T12:52:50;17.67;;;5.55;;
11396;SDS011;5754;43.726;7.416;2023-07-02T12:55:25;22.58;;;6.20;;
11396;SDS011;5754;43.726;7.416;2023-07-02T12:58:00;23.67;;;5.47;;
11396;SDS011;5754;43.726;7.416;2023-07-02T13:00:34;18.02;;;5.78;;
11396;SDS011;5754;43.726;7.416;2023-07-02T13:03:11;22.67;;;5.78;;
11396;SDS011;5754;43.726;7.416;2023-07-02T13:05:46;23.15;;;5.70;;
11396;SDS011;5754;43.726;7.416;2023-07-02T13:08:21;19.02;;;5.50;;
11396;SDS011;5754;43.726;7.416;2023-07-02T13:10:56;18.62;;;5.62;;
11396;SDS011;5754;43.726;7.416;2023-07-02T13:13:31;21.17;;;5.57;;
11396;SDS011;5754;43.726;7.416;2023-07-02T13:16:06;20.35;;;5.93;;
11396;SDS011;5754;43.726;7.416;2023-07-02T13:18:41;15.93;;;5.50;;
11396;SDS011;5754;43.726;7.416;2023-07-02T13:21:15;24.92;;;5.93;;
11396;SDS011;5754;43.726;7.416;2023-07-02T13:23:52;16.58;;;5.12;;
11396;SDS011;5754;43.726;7.416;2023-07-02T13:26:27;17.62;;;6.18;;
11396;SDS011;5754;43.726;7.416;2023-07-02T13:29:02;20.58;;;5.82;;
11396;SDS011;5754;43.726;7.416;2023-07-02T13:31:36;19.23;;;5.50;;
11396;SDS011;5754;43.726;7.416;2023-07-02T13:34:12;21.62;;;6.75;;
11396;SDS011;5754;43.726;7.416;2023-07-02T13:36:46;15.50;;;5.55;;
11396;SDS011;5754;43.726;7.416;2023-07-02T13:39:22;18.77;;;6.12;;
11396;SDS011;5754;43.726;7.416;2023-07-02T13:41:57;20.40;;;6.30;;
11396;SDS011;5754;43.726;7.416;2023-07-02T13:44:32;16.37;;;5.37;;
11396;SDS011;5754;43.726;7.416;2023-07-02T13:47:08;20.60;;;5.87;;
11396;SDS011;5754;43.726;7.416;2023-07-02T13:49:42;22.02;;;6.35;;
11396;SDS011;5754;43.726;7.416;2023-07-02T13:52:18;21.05;;;5.87;;
11396;SDS011;5754;43.726;7.416;2023-07-02T13:54:53;18.50;;;5.80;;
11396;SDS011;5754;43.726;7.416;2023-07-02T13:57:28;21.77;;;6.25;;
11396;SDS011;5754;43.726;7.416;2023-07-02T14:00:03;22.00;;;6.28;;
11396;SDS011;5754;43.726;7.416;2023-07-02T14:02:38;23.70;;;6.50;;
11396;SDS011;5754;43.726;7.416;2023-07-02T14:05:14;17.20;;;6.00;;
11396;SDS011;5754;43.726;7.416;2023-07-02T14:07:49;22.25;;;6.03;;
11396;SDS011;5754;43.726;7.416;2023-07-02T14:10:25;21.77;;;6.40;;
11396;SDS011;5754;43.726;7.416;2023-07-02T14:13:01;22.75;;;6.87;;
11396;SDS011;5754;43.726;7.416;2023-07-02T14:15:37;19.87;;;6.32;;
11396;SDS011;5754;43.726;7.416;2023-07-02T14:18:11;19.23;;;6.10;;
11396;SDS011;5754;43.726;7.416;2023-07-02T14:20:46;20.05;;;5.78;;
11396;SDS011;5754;43.726;7.416;2023-07-02T14:23:21;20.95;;;6.20;;
11396;SDS011;5754;43.726;7.416;2023-07-02T14:25:56;19.42;;;5.85;;
11396;SDS011;5754;43.726;7.416;2023-07-02T14:28:31;21.05;;;5.68;;
11396;SDS011;5754;43.726;7.416;2023-07-02T14:31:06;21.75;;;6.40;;
11396;SDS011;5754;43.726;7.416;2023-07-02T14:33:41;23.80;;;6.45;;
11396;SDS011;5754;43.726;7.416;2023-07-02T14:36:16;21.98;;;6.55;;
11396;SDS011;5754;43.726;7.416;2023-07-02T14:38:51;21.27;;;6.20;;
11396;SDS011;5754;43.726;7.416;2023-07-02T14:41:27;19.35;;;5.85;;
11396;SDS011;5754;43.726;7.416;2023-07-02T14:44:04;19.92;;;6.15;;
11396;SDS011;5754;43.726;7.416;2023-07-02T14:46:39;13.62;;;5.30;;
11396;SDS011;5754;43.726;7.416;2023-07-02T14:49:16;18.70;;;5.93;;
11396;SDS011;5754;43.726;7.416;2023-07-02T14:51:51;23.15;;;5.70;;
11396;SDS011;5754;43.726;7.416;2023-07-02T14:54:25;18.37;;;6.10;;
11396;SDS011;5754;43.726;7.416;2023-07-02T14:57:00;19.67;;;6.32;;
11396;SDS011;5754;43.726;7.416;2023-07-02T14:59:35;19.20;;;6.10;;
11396;SDS011;5754;43.726;7.416;2023-07-02T15:02:10;23.58;;;6.55;;
11396;SDS011;5754;43.726;7.416;2023-07-02T15:04:46;17.00;;;5.78;;
11396;SDS011;5754;43.726;7.416;2023-07-02T15:07:33;19.35;;;6.70;;
11396;SDS011;5754;43.726;7.416;2023-07-02T15:10:09;18.25;;;5.82;;
11396;SDS011;5754;43.726;7.416;2023-07-02T15:12:44;21.23;;;6.25;;
11396;SDS011;5754;43.726;7.416;2023-07-02T15:15:19;23.42;;;6.68;;
11396;SDS011;5754;43.726;7.416;2023-07-02T15:17:55;21.08;;;5.82;;
11396;SDS011;5754;43.726;7.416;2023-07-02T15:20:32;20.80;;;6.20;;
11396;SDS011;5754;43.726;7.416;2023-07-02T15:23:07;16.25;;;6.07;;
11396;SDS011;5754;43.726;7.416;2023-07-02T15:25:42;20.15;;;6.35;;
11396;SDS011;5754;43.726;7.416;2023-07-02T15:28:17;13.60;;;4.80;;
11396;SDS011;5754;43.726;7.416;2023-07-02T15:30:57;18.98;;;5.78;;
11396;SDS011;5754;43.726;7.416;2023-07-02T15:33:32;15.05;;;6.55;;
11396;SDS011;5754;43.726;7.416;2023-07-02T15:36:08;21.23;;;5.70;;
11396;SDS011;5754;43.726;7.416;2023-07-02T15:38:43;22.27;;;5.37;;
11396;SDS011;5754;43.726;7.416;2023-07-02T15:41:19;21.65;;;6.43;;
11396;SDS011;5754;43.726;7.416;2023-07-02T15:43:54;22.13;;;6.65;;
11396;SDS011;5754;43.726;7.416;2023-07-02T15:46:29;21.08;;;5.60;;
11396;SDS011;5754;43.726;7.416;2023-07-02T15:49:07;18.90;;;6.62;;